Time;durP1;ratioP1;P1;durP2;ratioP2;P2;SDS_P1;SDS_P2;PMS_P1;PMS_P2;Temp;Humidity;BMP_temperature;BMP_pressure;BME280_temperature;BME280_humidity;BME280_pressure;Samples;Min_cycle;Max_cycle;Signal;HPM_P1;HPM_P2
2022/09/12 00:01:57;;;;;;;0.22;0.20;;;;;;;;;;5071785;28;20025;-42
2022/09/12 00:04:22;;;;;;;0.20;0.20;;;;;;;;;;5071489;28;20482;-42
2022/09/12 00:06:48;;;;;;;0.40;0.30;;;;;;;;;;5071868;28;20029;-43
2022/09/12 00:09:13;;;;;;;0.10;0.10;;;;;;;;;;5071704;28;20466;-42
2022/09/12 00:11:40;;;;;;;0.70;0.30;;;;;;;;;;5071478;28;20093;-42
2022/09/12 00:14:06;;;;;;;0.20;0.20;;;;;;;;;;5071283;28;20016;-42
2022/09/12 00:16:33;;;;;;;1.40;0.20;;;;;;;;;;5071423;28;20040;-43
2022/09/12 00:18:59;;;;;;;0.28;0.17;;;;;;;;;;5071770;28;20429;-42
2022/09/12 00:21:25;;;;;;;0.30;0.20;;;;;;;;;;5071351;28;20076;-42
2022/09/12 00:23:51;;;;;;;0.10;0.10;;;;;;;;;;5071671;28;20072;-41
2022/09/12 00:26:17;;;;;;;0.10;0.10;;;;;;;;;;5071341;28;20155;-42
2022/09/12 00:28:42;;;;;;;0.20;0.20;;;;;;;;;;5071274;28;20056;-42
2022/09/12 00:31:09;;;;;;;0.20;0.20;;;;;;;;;;5071603;28;20648;-42
2022/09/12 00:33:34;;;;;;;0.30;0.30;;;;;;;;;;5071327;28;20033;-42
2022/09/12 00:36:02;;;;;;;0.35;0.10;;;;;;;;;;5071627;28;20074;-42
2022/09/12 00:38:28;;;;;;;0.10;0.10;;;;;;;;;;5071521;28;20016;-42
2022/09/12 00:40:53;;;;;;;0.20;0.13;;;;;;;;;;5071198;28;20034;-43
2022/09/12 00:43:38;;;;;;;2.35;0.47;;;;;;;;;;5071233;28;20020;-44
2022/09/12 00:46:13;;;;;;;0.47;0.47;;;;;;;;;;5071620;28;20033;-42
2022/09/12 00:48:41;;;;;;;0.63;0.20;;;;;;;;;;5071270;28;20031;-42
2022/09/12 00:51:07;;;;;;;0.10;0.10;;;;;;;;;;5071106;28;20012;-42
2022/09/12 00:53:33;;;;;;;0.10;0.10;;;;;;;;;;5071041;28;20063;-43
2022/09/12 00:55:58;;;;;;;0.38;0.20;;;;;;;;;;5071082;28;20060;-42
2022/09/12 00:58:26;;;;;;;0.20;0.20;;;;;;;;;;5071132;28;20040;-42
2022/09/12 01:00:52;;;;;;;0.60;0.20;;;;;;;;;;5071246;28;20035;-42
2022/09/12 01:03:18;;;;;;;0.30;0.30;;;;;;;;;;5070990;28;20036;-42
2022/09/12 01:05:53;;;;;;;0.30;0.30;;;;;;;;;;5071249;28;20031;-43
2022/09/12 01:08:19;;;;;;;0.47;0.47;;;;;;;;;;5070956;28;20064;-42
2022/09/12 01:10:45;;;;;;;0.17;0.17;;;;;;;;;;5071011;28;20048;-42
2022/09/12 01:13:10;;;;;;;0.20;0.20;;;;;;;;;;5070865;28;20044;-43
2022/09/12 01:15:36;;;;;;;2.83;0.25;;;;;;;;;;5070863;28;20024;-41
2022/09/12 01:18:20;;;;;;;0.30;0.15;;;;;;;;;;5071231;28;20029;-41
2022/09/12 01:20:46;;;;;;;0.22;0.20;;;;;;;;;;5070658;28;20048;-42
2022/09/12 01:23:11;;;;;;;4.75;0.22;;;;;;;;;;5070800;28;20039;-42
2022/09/12 01:25:58;;;;;;;2.83;0.20;;;;;;;;;;5072288;28;20021;-42
2022/09/12 01:28:24;;;;;;;0.20;0.20;;;;;;;;;;5074520;28;20066;-42
2022/09/12 01:31:01;;;;;;;0.32;0.22;;;;;;;;;;5074449;28;20016;-42
2022/09/12 01:33:35;;;;;;;2.20;0.20;;;;;;;;;;5074672;28;20064;-41
2022/09/12 01:36:19;;;;;;;0.30;0.20;;;;;;;;;;5074431;28;20032;-42
2022/09/12 01:38:58;;;;;;;0.17;0.17;;;;;;;;;;5074524;28;20032;-42
2022/09/12 01:41:26;;;;;;;0.10;0.10;;;;;;;;;;5074594;28;20040;-42
2022/09/12 01:44:06;;;;;;;0.30;0.20;;;;;;;;;;5074426;28;20075;-42
2022/09/12 01:46:37;;;;;;;0.20;0.10;;;;;;;;;;5074227;28;20031;-42
2022/09/12 01:49:24;;;;;;;6.03;0.80;;;;;;;;;;5074392;28;20086;-42
2022/09/12 01:51:52;;;;;;;0.20;0.20;;;;;;;;;;5073875;28;20033;-42
2022/09/12 01:54:35;;;;;;;0.40;0.30;;;;;;;;;;5074129;28;20066;-42
2022/09/12 01:57:02;;;;;;;0.13;0.13;;;;;;;;;;5074239;28;20028;-42
2022/09/12 01:59:34;;;;;;;0.30;0.28;;;;;;;;;;5074323;28;20020;-42
2022/09/12 02:02:06;;;;;;;0.60;0.45;;;;;;;;;;5073916;28;20485;-42
2022/09/12 02:04:35;;;;;;;0.10;0.10;;;;;;;;;;5073862;28;20032;-42
2022/09/12 02:07:05;;;;;;;0.20;0.20;;;;;;;;;;5073925;28;20029;-42
2022/09/12 02:09:35;;;;;;;0.20;0.20;;;;;;;;;;5073888;28;20029;-45
2022/09/12 02:12:02;;;;;;;0.20;0.20;;;;;;;;;;5073972;28;20485;-42
2022/09/12 02:14:30;;;;;;;0.25;0.25;;;;;;;;;;5073748;28;20044;-42
2022/09/12 02:17:01;;;;;;;0.20;0.20;;;;;;;;;;5073637;28;20033;-42
2022/09/12 02:19:38;;;;;;;0.10;0.10;;;;;;;;;;5073705;28;20025;-42
2022/09/12 02:22:03;;;;;;;4.22;0.20;;;;;;;;;;5073952;28;20048;-42
2022/09/12 02:24:35;;;;;;;0.10;0.10;;;;;;;;;;5073512;28;20028;-42
2022/09/12 02:27:04;;;;;;;0.28;0.28;;;;;;;;;;5073724;28;20036;-42
2022/09/12 02:29:29;;;;;;;1.98;0.30;;;;;;;;;;5073669;28;20021;-42
2022/09/12 02:31:54;;;;;;;0.20;0.20;;;;;;;;;;5073317;28;20040;-41
2022/09/12 02:34:23;;;;;;;0.10;0.10;;;;;;;;;;5071994;28;20024;-42
2022/09/12 02:36:54;;;;;;;0.20;0.20;;;;;;;;;;5072892;28;20036;-42
2022/09/12 02:39:20;;;;;;;0.10;0.10;;;;;;;;;;5073413;28;20433;-42
2022/09/12 02:41:55;;;;;;;0.10;0.10;;;;;;;;;;5073125;28;20017;-42
2022/09/12 02:44:22;;;;;;;0.22;0.20;;;;;;;;;;5073247;28;20032;-42
2022/09/12 02:46:49;;;;;;;1.98;0.20;;;;;;;;;;5072948;28;20417;-42
2022/09/12 02:49:14;;;;;;;0.38;0.22;;;;;;;;;;5073366;28;20047;-42
2022/09/12 02:51:40;;;;;;;0.50;0.10;;;;;;;;;;5072855;28;20033;-42
2022/09/12 02:54:06;;;;;;;0.17;0.17;;;;;;;;;;5072871;28;20037;-42
2022/09/12 02:56:32;;;;;;;0.25;0.22;;;;;;;;;;5072964;28;20017;-42
2022/09/12 02:59:00;;;;;;;0.10;0.10;;;;;;;;;;5072756;28;20143;-42
2022/09/12 03:01:44;;;;;;;0.17;0.17;;;;;;;;;;5073066;28;20024;-42
2022/09/12 03:04:22;;;;;;;0.10;0.10;;;;;;;;;;5072777;28;20025;-42
2022/09/12 03:07:11;;;;;;;0.20;0.20;;;;;;;;;;5072676;28;20031;-42
2022/09/12 03:09:41;;;;;;;4.68;0.38;;;;;;;;;;5072369;28;20391;-42
2022/09/12 03:12:10;;;;;;;0.10;0.10;;;;;;;;;;5072533;28;20620;-42
2022/09/12 03:14:38;;;;;;;1.27;0.30;;;;;;;;;;5072737;28;20064;-42
2022/09/12 03:17:12;;;;;;;0.30;0.30;;;;;;;;;;5072699;28;20017;-42
2022/09/12 03:19:53;;;;;;;0.63;0.63;;;;;;;;;;5072130;28;20455;-42
2022/09/12 03:22:34;;;;;;;0.20;0.20;;;;;;;;;;5072565;28;20033;-41
2022/09/12 03:25:08;;;;;;;0.75;0.22;;;;;;;;;;5072592;28;20364;-42
2022/09/12 03:27:35;;;;;;;0.20;0.20;;;;;;;;;;5072191;28;20054;-42
2022/09/12 03:30:02;;;;;;;0.17;0.10;;;;;;;;;;5072433;28;20421;-41
2022/09/12 03:32:47;;;;;;;0.15;0.15;;;;;;;;;;5072352;28;20040;-41
2022/09/12 03:35:13;;;;;;;0.22;0.22;;;;;;;;;;5072096;28;20036;-42
2022/09/12 03:37:39;;;;;;;0.80;0.38;;;;;;;;;;5070949;28;20063;-42
2022/09/12 03:40:05;;;;;;;0.43;0.30;;;;;;;;;;5072314;28;20040;-42
2022/09/12 03:42:31;;;;;;;0.15;0.15;;;;;;;;;;5072290;28;20025;-42
2022/09/12 03:44:56;;;;;;;0.10;0.10;;;;;;;;;;5071976;28;20097;-42
2022/09/12 03:47:22;;;;;;;0.10;0.10;;;;;;;;;;5072185;28;20100;-42
2022/09/12 03:49:47;;;;;;;0.38;0.30;;;;;;;;;;5070978;28;20067;-42
2022/09/12 03:52:13;;;;;;;0.22;0.13;;;;;;;;;;5071731;28;20036;-42
2022/09/12 03:54:39;;;;;;;0.10;0.10;;;;;;;;;;5071701;28;20044;-42
2022/09/12 03:57:04;;;;;;;0.10;0.10;;;;;;;;;;5072047;28;20474;-42
2022/09/12 03:59:30;;;;;;;0.10;0.10;;;;;;;;;;5071670;28;20502;-42
2022/09/12 04:01:55;;;;;;;0.35;0.30;;;;;;;;;;5071888;28;20020;-42
2022/09/12 04:04:21;;;;;;;0.13;0.13;;;;;;;;;;5071649;28;20441;-42
2022/09/12 04:06:46;;;;;;;0.10;0.10;;;;;;;;;;5071424;28;20009;-42
2022/09/12 04:09:11;;;;;;;0.38;0.32;;;;;;;;;;5071645;28;20116;-42
2022/09/12 04:11:37;;;;;;;0.55;0.30;;;;;;;;;;5071414;28;20024;-42
2022/09/12 04:14:02;;;;;;;0.20;0.20;;;;;;;;;;5071837;28;20111;-42
2022/09/12 04:16:28;;;;;;;2.40;0.20;;;;;;;;;;5071699;28;20055;-42
2022/09/12 04:18:53;;;;;;;0.25;0.20;;;;;;;;;;5071423;28;20479;-41
2022/09/12 04:21:20;;;;;;;0.20;0.20;;;;;;;;;;5071275;28;20044;-42
2022/09/12 04:23:46;;;;;;;1.35;0.32;;;;;;;;;;5071332;28;20052;-43
2022/09/12 04:26:13;;;;;;;0.20;0.20;;;;;;;;;;5071399;28;20095;-42
2022/09/12 04:28:38;;;;;;;0.43;0.20;;;;;;;;;;5069870;28;20038;-42
2022/09/12 04:31:06;;;;;;;0.65;0.28;;;;;;;;;;5071374;28;20017;-42
2022/09/12 04:33:32;;;;;;;0.17;0.17;;;;;;;;;;5071213;28;20047;-41
2022/09/12 04:36:01;;;;;;;0.20;0.20;;;;;;;;;;5071216;28;20020;-41
2022/09/12 04:38:27;;;;;;;0.17;0.10;;;;;;;;;;5071333;28;20025;-42
2022/09/12 04:40:53;;;;;;;0.10;0.10;;;;;;;;;;5071110;28;20028;-43
2022/09/12 04:43:18;;;;;;;0.20;0.20;;;;;;;;;;5071559;28;20024;-42
2022/09/12 04:45:44;;;;;;;0.25;0.20;;;;;;;;;;5071357;28;20657;-42
2022/09/12 04:48:09;;;;;;;0.90;0.20;;;;;;;;;;5071125;28;20036;-41
2022/09/12 04:50:34;;;;;;;0.20;0.20;;;;;;;;;;5071080;28;20025;-42
2022/09/12 04:53:00;;;;;;;0.13;0.13;;;;;;;;;;5071031;28;20119;-42
2022/09/12 04:55:25;;;;;;;0.55;0.30;;;;;;;;;;5071098;28;20142;-42
2022/09/12 04:57:51;;;;;;;9.23;0.68;;;;;;;;;;5071299;28;20470;-41
2022/09/12 05:00:17;;;;;;;0.22;0.22;;;;;;;;;;5072473;28;20066;-42
2022/09/12 05:02:43;;;;;;;1.85;0.40;;;;;;;;;;5074919;28;20040;-42
2022/09/12 05:05:09;;;;;;;0.10;0.10;;;;;;;;;;5073685;28;20016;-42
2022/09/12 05:07:35;;;;;;;0.10;0.10;;;;;;;;;;5073647;28;20032;-45
2022/09/12 05:10:02;;;;;;;0.17;0.17;;;;;;;;;;5075187;28;20031;-41
2022/09/12 05:12:27;;;;;;;0.85;0.28;;;;;;;;;;5074708;28;20043;-42
2022/09/12 05:14:53;;;;;;;0.15;0.10;;;;;;;;;;5074708;28;20016;-42
2022/09/12 05:17:18;;;;;;;0.20;0.20;;;;;;;;;;5074908;28;20078;-42
2022/09/12 05:19:44;;;;;;;0.20;0.20;;;;;;;;;;5074492;28;20419;-43
2022/09/12 05:22:09;;;;;;;0.35;0.22;;;;;;;;;;5074689;28;20077;-42
2022/09/12 05:24:38;;;;;;;0.10;0.10;;;;;;;;;;5074298;28;20070;-41
2022/09/12 05:27:04;;;;;;;0.10;0.10;;;;;;;;;;5074561;28;20455;-41
2022/09/12 05:29:30;;;;;;;0.20;0.20;;;;;;;;;;5074529;28;20017;-42
2022/09/12 05:31:55;;;;;;;0.20;0.20;;;;;;;;;;5074279;28;20040;-42
2022/09/12 05:34:21;;;;;;;0.25;0.20;;;;;;;;;;5074710;28;20048;-42
2022/09/12 05:36:47;;;;;;;3.42;0.38;;;;;;;;;;5074252;28;20035;-41
2022/09/12 05:39:13;;;;;;;0.20;0.20;;;;;;;;;;5074303;28;20028;-41
2022/09/12 05:41:38;;;;;;;0.10;0.10;;;;;;;;;;5074481;28;20028;-41
2022/09/12 05:44:05;;;;;;;0.63;0.20;;;;;;;;;;5074219;28;20069;-42
2022/09/12 05:46:42;;;;;;;0.10;0.10;;;;;;;;;;5074128;28;20063;-42
2022/09/12 05:49:09;;;;;;;0.40;0.40;;;;;;;;;;5074151;28;20021;-42
2022/09/12 05:51:36;;;;;;;0.20;0.20;;;;;;;;;;5074357;28;20024;-42
2022/09/12 05:54:03;;;;;;;0.43;0.40;;;;;;;;;;5074041;28;20043;-42
2022/09/12 05:56:29;;;;;;;0.10;0.10;;;;;;;;;;5074040;28;20020;-42
2022/09/12 05:58:56;;;;;;;0.20;0.20;;;;;;;;;;5073868;28;20031;-42
2022/09/12 06:01:22;;;;;;;0.20;0.20;;;;;;;;;;5073907;28;20030;-42
2022/09/12 06:03:49;;;;;;;0.20;0.20;;;;;;;;;;5073932;28;20028;-41
2022/09/12 06:06:15;;;;;;;0.10;0.10;;;;;;;;;;5074024;28;20377;-41
2022/09/12 06:08:42;;;;;;;0.20;0.20;;;;;;;;;;5073791;28;20037;-42
2022/09/12 06:11:09;;;;;;;0.10;0.10;;;;;;;;;;5073767;28;20020;-42
2022/09/12 06:13:36;;;;;;;0.77;0.20;;;;;;;;;;5072730;28;20475;-42
2022/09/12 06:16:07;;;;;;;0.10;0.10;;;;;;;;;;5073666;28;20016;-41
2022/09/12 06:18:32;;;;;;;0.10;0.10;;;;;;;;;;5073663;28;20124;-41
2022/09/12 06:21:01;;;;;;;0.10;0.10;;;;;;;;;;5073378;28;20547;-42
2022/09/12 06:23:26;;;;;;;0.40;0.30;;;;;;;;;;5073801;28;20111;-41
2022/09/12 06:25:52;;;;;;;0.10;0.10;;;;;;;;;;5073390;28;20534;-41
2022/09/12 06:28:18;;;;;;;0.17;0.10;;;;;;;;;;5073417;28;20024;-41
2022/09/12 06:30:44;;;;;;;0.20;0.20;;;;;;;;;;5073569;28;20107;-42
2022/09/12 06:33:10;;;;;;;0.10;0.10;;;;;;;;;;5073376;28;20120;-41
2022/09/12 06:35:37;;;;;;;0.57;0.32;;;;;;;;;;5073148;28;20062;-42
2022/09/12 06:38:02;;;;;;;0.52;0.10;;;;;;;;;;5073303;28;20033;-41
2022/09/12 06:40:28;;;;;;;0.32;0.10;;;;;;;;;;5072075;28;20082;-41
2022/09/12 06:42:54;;;;;;;0.10;0.10;;;;;;;;;;5073301;28;20079;-41
2022/09/12 06:45:31;;;;;;;0.20;0.20;;;;;;;;;;5073089;28;20016;-41
2022/09/12 06:48:00;;;;;;;0.22;0.22;;;;;;;;;;5072886;28;20060;-41
2022/09/12 06:50:25;;;;;;;3.00;0.10;;;;;;;;;;5073022;28;20111;-42
2022/09/12 06:52:51;;;;;;;0.65;0.40;;;;;;;;;;5072776;28;20124;-42
2022/09/12 06:55:17;;;;;;;0.35;0.35;;;;;;;;;;5073121;28;20020;-42
2022/09/12 06:57:42;;;;;;;1.95;0.25;;;;;;;;;;5071549;28;20028;-42
2022/09/12 07:00:09;;;;;;;0.85;0.30;;;;;;;;;;5072775;28;20052;-42
2022/09/12 07:02:35;;;;;;;0.40;0.13;;;;;;;;;;5073049;28;20079;-41
2022/09/12 07:05:02;;;;;;;9.15;1.40;;;;;;;;;;5071381;28;20044;-41
2022/09/12 07:07:27;;;;;;;0.15;0.10;;;;;;;;;;5072927;28;20081;-42
2022/09/12 07:09:56;;;;;;;0.85;0.20;;;;;;;;;;5071565;28;20099;-42
2022/09/12 07:12:21;;;;;;;0.20;0.20;;;;;;;;;;5072714;28;20367;-42
2022/09/12 07:14:47;;;;;;;1.30;0.30;;;;;;;;;;5072678;28;20028;-41
2022/09/12 07:17:13;;;;;;;0.10;0.10;;;;;;;;;;5072457;28;20032;-42
2022/09/12 07:19:39;;;;;;;1.65;0.20;;;;;;;;;;5072434;28;20032;-42
2022/09/12 07:22:04;;;;;;;0.20;0.20;;;;;;;;;;5071246;28;20051;-42
2022/09/12 07:24:29;;;;;;;0.10;0.10;;;;;;;;;;5072084;28;20082;-41
2022/09/12 07:26:55;;;;;;;0.10;0.10;;;;;;;;;;5072272;28;20403;-42
2022/09/12 07:29:20;;;;;;;1.25;0.28;;;;;;;;;;5072280;28;20052;-42
2022/09/12 07:31:46;;;;;;;6.25;0.50;;;;;;;;;;5072231;28;20510;-42
2022/09/12 07:34:12;;;;;;;0.10;0.10;;;;;;;;;;5072161;28;20427;-42
2022/09/12 07:36:38;;;;;;;0.30;0.30;;;;;;;;;;5072078;28;20037;-42
2022/09/12 07:39:03;;;;;;;0.10;0.10;;;;;;;;;;5072297;28;20459;-47
2022/09/12 07:41:30;;;;;;;0.85;0.40;;;;;;;;;;5072124;28;20402;-42
2022/09/12 07:43:59;;;;;;;0.13;0.13;;;;;;;;;;5070558;28;20067;-42
2022/09/12 07:46:25;;;;;;;0.10;0.10;;;;;;;;;;5072112;28;20032;-42
2022/09/12 07:48:51;;;;;;;0.63;0.63;;;;;;;;;;5072063;28;20017;-42
2022/09/12 07:51:17;;;;;;;1.83;0.22;;;;;;;;;;5071909;28;20047;-42
2022/09/12 07:53:43;;;;;;;0.20;0.20;;;;;;;;;;5071649;28;20029;-41
2022/09/12 07:56:09;;;;;;;0.73;0.17;;;;;;;;;;5071682;28;20035;-41
2022/09/12 07:58:35;;;;;;;0.80;0.30;;;;;;;;;;5071869;28;20012;-42
2022/09/12 08:01:04;;;;;;;0.65;0.20;;;;;;;;;;5071570;28;20063;-42
2022/09/12 08:03:29;;;;;;;0.30;0.30;;;;;;;;;;5071971;28;20027;-42
2022/09/12 08:06:01;;;;;;;0.10;0.10;;;;;;;;;;5071559;28;20115;-42
2022/09/12 08:08:28;;;;;;;0.10;0.10;;;;;;;;;;5071564;28;20024;-41
2022/09/12 08:10:57;;;;;;;0.20;0.20;;;;;;;;;;5071535;28;20131;-42
2022/09/12 08:13:23;;;;;;;1.77;0.25;;;;;;;;;;5071458;28;20043;-41
2022/09/12 08:15:49;;;;;;;0.20;0.20;;;;;;;;;;5071668;28;20416;-42
2022/09/12 08:18:14;;;;;;;0.10;0.10;;;;;;;;;;5071825;28;20161;-42
2022/09/12 08:20:40;;;;;;;0.17;0.17;;;;;;;;;;5071228;28;20041;-42
2022/09/12 08:23:06;;;;;;;0.10;0.10;;;;;;;;;;5071706;28;20036;-41
2022/09/12 08:25:31;;;;;;;0.10;0.10;;;;;;;;;;5071367;28;20017;-43
2022/09/12 08:27:57;;;;;;;0.20;0.20;;;;;;;;;;5071305;28;20494;-41
2022/09/12 08:30:22;;;;;;;0.13;0.13;;;;;;;;;;5071333;28;20017;-41
2022/09/12 08:32:48;;;;;;;0.95;0.17;;;;;;;;;;5071426;28;20036;-42
2022/09/12 08:35:14;;;;;;;0.28;0.13;;;;;;;;;;5070771;28;20482;-42
2022/09/12 08:37:39;;;;;;;0.10;0.10;;;;;;;;;;5069937;28;20036;-41
2022/09/12 08:40:07;;;;;;;0.20;0.15;;;;;;;;;;5070043;28;20107;-42
2022/09/12 08:42:45;;;;;;;0.10;0.10;;;;;;;;;;5071240;28;20220;-41
2022/09/12 08:45:14;;;;;;;0.10;0.10;;;;;;;;;;5071284;28;20021;-42
2022/09/12 08:47:42;;;;;;;0.30;0.28;;;;;;;;;;5069857;28;20032;-41
2022/09/12 08:50:10;;;;;;;0.50;0.20;;;;;;;;;;5071108;28;20395;-41
2022/09/12 08:52:54;;;;;;;0.15;0.15;;;;;;;;;;5071105;28;20491;-42
2022/09/12 08:55:26;;;;;;;0.10;0.10;;;;;;;;;;5071328;28;20032;-41
2022/09/12 08:57:51;;;;;;;0.10;0.10;;;;;;;;;;5069680;28;20062;-42
2022/09/12 09:00:18;;;;;;;0.17;0.17;;;;;;;;;;5071063;28;20089;-43
2022/09/12 09:03:02;;;;;;;0.60;0.20;;;;;;;;;;5071056;28;20025;-42
2022/09/12 09:05:47;;;;;;;0.55;0.47;;;;;;;;;;5071222;28;20348;-41
2022/09/12 09:08:22;;;;;;;0.38;0.10;;;;;;;;;;5071282;28;20382;-42
2022/09/12 09:10:55;;;;;;;0.25;0.15;;;;;;;;;;5070956;28;20458;-42
2022/09/12 09:16:24;;;;;;;0.55;0.35;;;;;;;;;;5070891;28;20031;-42
2022/09/12 09:18:51;;;;;;;0.35;0.25;;;;;;;;;;5070847;28;20095;-42
2022/09/12 09:21:29;;;;;;;1.88;0.10;;;;;;;;;;5070745;28;20064;-41
2022/09/12 09:24:05;;;;;;;0.90;0.10;;;;;;;;;;5070793;28;20039;-41
2022/09/12 09:26:48;;;;;;;0.40;0.22;;;;;;;;;;5070851;28;20607;-42
2022/09/12 09:29:16;;;;;;;0.10;0.10;;;;;;;;;;5070828;28;20118;-42
2022/09/12 09:31:44;;;;;;;0.10;0.10;;;;;;;;;;5070883;28;20127;-41
2022/09/12 09:34:16;;;;;;;0.08;0.08;;;;;;;;;;5070732;28;20033;-42
2022/09/12 09:36:49;;;;;;;0.35;0.25;;;;;;;;;;5070592;28;20029;-41
2022/09/12 09:39:23;;;;;;;0.10;0.10;;;;;;;;;;5071006;28;20032;-42
2022/09/12 09:42:07;;;;;;;0.10;0.10;;;;;;;;;;5070821;28;20025;-42
2022/09/12 09:44:33;;;;;;;0.40;0.20;;;;;;;;;;5070674;28;20033;-42
2022/09/12 09:46:59;;;;;;;0.10;0.10;;;;;;;;;;5070851;28;20020;-42
2022/09/12 09:49:27;;;;;;;0.30;0.30;;;;;;;;;;5074273;28;20108;-41
2022/09/12 09:51:52;;;;;;;0.10;0.10;;;;;;;;;;5073989;28;20066;-41
2022/09/12 09:54:18;;;;;;;0.57;0.25;;;;;;;;;;5073995;28;20040;-42
2022/09/12 09:56:43;;;;;;;0.10;0.10;;;;;;;;;;5074081;28;20073;-42
2022/09/12 09:59:10;;;;;;;0.10;0.10;;;;;;;;;;5073983;28;20131;-42
2022/09/12 10:01:37;;;;;;;0.28;0.28;;;;;;;;;;5073951;28;20052;-42
2022/09/12 10:04:03;;;;;;;0.10;0.10;;;;;;;;;;5073863;28;20083;-42
2022/09/12 10:06:33;;;;;;;0.22;0.20;;;;;;;;;;5074129;28;20016;-42
2022/09/12 10:09:13;;;;;;;0.20;0.20;;;;;;;;;;5073683;28;20033;-42
2022/09/12 10:11:39;;;;;;;0.40;0.15;;;;;;;;;;5073667;28;20094;-43
2022/09/12 10:14:24;;;;;;;1.10;0.28;;;;;;;;;;5073802;28;20041;-42
2022/09/12 10:16:53;;;;;;;0.10;0.10;;;;;;;;;;5073965;28;20024;-42
2022/09/12 10:19:24;;;;;;;0.22;0.20;;;;;;;;;;5073967;28;20028;-42
2022/09/12 10:21:50;;;;;;;0.20;0.10;;;;;;;;;;5073292;28;20106;-42
2022/09/12 10:24:16;;;;;;;0.10;0.10;;;;;;;;;;5073790;28;20098;-42
2022/09/12 10:26:42;;;;;;;0.10;0.10;;;;;;;;;;5073371;28;20433;-42
2022/09/12 10:29:12;;;;;;;0.75;0.35;;;;;;;;;;5073833;28;20127;-42
2022/09/12 10:31:46;;;;;;;1.40;0.20;;;;;;;;;;5073548;28;20032;-42
2022/09/12 10:34:20;;;;;;;3.60;0.28;;;;;;;;;;5073675;28;20051;-42
2022/09/12 10:36:45;;;;;;;3.65;0.20;;;;;;;;;;5073166;28;20040;-42
2022/09/12 10:39:15;;;;;;;0.60;0.28;;;;;;;;;;5073225;28;20023;-41
2022/09/12 10:41:40;;;;;;;0.10;0.10;;;;;;;;;;5073142;28;20079;-42
2022/09/12 10:44:25;;;;;;;2.40;0.20;;;;;;;;;;5071707;28;20048;-43
2022/09/12 10:46:50;;;;;;;0.10;0.10;;;;;;;;;;5073301;28;20065;-42
2022/09/12 10:49:16;;;;;;;0.10;0.10;;;;;;;;;;5073152;28;20483;-42
2022/09/12 10:51:42;;;;;;;0.15;0.10;;;;;;;;;;5073132;28;20407;-42
2022/09/12 10:54:08;;;;;;;1.23;0.25;;;;;;;;;;5072826;28;20035;-42
2022/09/12 10:56:34;;;;;;;0.17;0.17;;;;;;;;;;5073227;28;20021;-42
2022/09/12 10:59:16;;;;;;;0.25;0.25;;;;;;;;;;5070990;28;20034;-42
2022/09/12 11:01:44;;;;;;;0.32;0.17;;;;;;;;;;5072994;28;20036;-42
2022/09/12 11:04:33;;;;;;;0.15;0.10;;;;;;;;;;5072746;28;20025;-42
2022/09/12 11:07:17;;;;;;;0.25;0.20;;;;;;;;;;5072905;28;20032;-43
2022/09/12 11:09:57;;;;;;;0.43;0.20;;;;;;;;;;5072632;28;20040;-42
2022/09/12 11:12:28;;;;;;;0.13;0.13;;;;;;;;;;5072451;28;20041;-42
2022/09/12 11:14:58;;;;;;;0.20;0.15;;;;;;;;;;5072760;28;20028;-42
2022/09/12 11:17:23;;;;;;;0.10;0.10;;;;;;;;;;5071306;28;20009;-42
2022/09/12 11:20:01;;;;;;;0.00;0.00;;;;;;;;;;5072423;28;20094;-42
2022/09/12 11:22:49;;;;;;;0.20;0.20;;;;;;;;;;5072412;28;20112;-42
2022/09/12 11:25:19;;;;;;;4.07;0.15;;;;;;;;;;5072157;28;20390;-42
2022/09/12 11:28:00;;;;;;;0.10;0.10;;;;;;;;;;5072232;28;20103;-42
2022/09/12 11:30:30;;;;;;;0.40;0.30;;;;;;;;;;5072512;28;20044;-41
2022/09/12 11:33:14;;;;;;;0.20;0.10;;;;;;;;;;5070917;28;20040;-42
2022/09/12 11:35:48;;;;;;;0.20;0.10;;;;;;;;;;5072331;28;20037;-42
2022/09/12 11:38:17;;;;;;;3.10;0.20;;;;;;;;;;5070876;28;20041;-43
2022/09/12 11:40:45;;;;;;;0.15;0.15;;;;;;;;;;5072251;28;20025;-41
2022/09/12 11:43:26;;;;;;;0.20;0.20;;;;;;;;;;5072140;28;20039;-42
2022/09/12 11:45:51;;;;;;;0.10;0.10;;;;;;;;;;5071815;28;20485;-42
2022/09/12 11:48:24;;;;;;;0.40;0.30;;;;;;;;;;5071894;28;20020;-42
2022/09/12 11:50:49;;;;;;;0.25;0.25;;;;;;;;;;5071864;28;20035;-42
2022/09/12 11:53:23;;;;;;;0.10;0.10;;;;;;;;;;5071820;28;20040;-43
2022/09/12 11:55:55;;;;;;;0.10;0.10;;;;;;;;;;5071688;28;20040;-42
2022/09/12 11:58:23;;;;;;;0.20;0.20;;;;;;;;;;5072037;28;20047;-42
2022/09/12 12:00:50;;;;;;;0.10;0.10;;;;;;;;;;5071724;28;20012;-42
2022/09/12 12:03:22;;;;;;;0.30;0.30;;;;;;;;;;5071945;28;20360;-43
2022/09/12 12:06:00;;;;;;;0.10;0.10;;;;;;;;;;5071669;28;20025;-42
2022/09/12 12:08:28;;;;;;;0.25;0.20;;;;;;;;;;5071949;28;20429;-42
2022/09/12 12:10:55;;;;;;;0.20;0.20;;;;;;;;;;5069514;28;20024;-42
2022/09/12 12:13:24;;;;;;;0.15;0.15;;;;;;;;;;5071483;28;20046;-42
2022/09/12 12:15:58;;;;;;;0.10;0.10;;;;;;;;;;5071377;28;20116;-43
2022/09/12 12:18:25;;;;;;;0.32;0.32;;;;;;;;;;5071545;28;20111;-42
2022/09/12 12:20:51;;;;;;;0.40;0.20;;;;;;;;;;5071244;28;20477;-42
2022/09/12 12:23:26;;;;;;;0.50;0.20;;;;;;;;;;5071707;28;20421;-43
2022/09/12 12:25:53;;;;;;;0.73;0.28;;;;;;;;;;5071612;28;20433;-42
2022/09/12 12:28:37;;;;;;;0.20;0.20;;;;;;;;;;5071739;28;20047;-42
2022/09/12 12:31:03;;;;;;;0.35;0.20;;;;;;;;;;5071244;28;20024;-43
2022/09/12 12:33:28;;;;;;;0.30;0.20;;;;;;;;;;5071321;28;20043;-42
2022/09/12 12:36:03;;;;;;;0.10;0.10;;;;;;;;;;5071176;28;20028;-42
2022/09/12 12:38:32;;;;;;;0.20;0.20;;;;;;;;;;5071270;28;20025;-43
2022/09/12 12:41:16;;;;;;;0.10;0.10;;;;;;;;;;5071208;28;20493;-43
2022/09/12 12:43:44;;;;;;;0.10;0.10;;;;;;;;;;5071085;28;20122;-46
2022/09/12 12:46:11;;;;;;;0.20;0.20;;;;;;;;;;5071154;28;20074;-43
2022/09/12 12:48:56;;;;;;;1.38;0.15;;;;;;;;;;5071248;28;20029;-42
2022/09/12 12:51:40;;;;;;;0.25;0.25;;;;;;;;;;5071468;28;20056;-43
2022/09/12 12:54:26;;;;;;;0.40;0.25;;;;;;;;;;5071353;28;20036;-43
2022/09/12 12:56:59;;;;;;;0.20;0.20;;;;;;;;;;5071062;28;20550;-43
2022/09/12 12:59:25;;;;;;;0.20;0.20;;;;;;;;;;5071298;28;20024;-43
2022/09/12 13:01:54;;;;;;;4.35;1.52;;;;;;;;;;5070999;28;20017;-43
2022/09/12 13:04:25;;;;;;;1.17;0.28;;;;;;;;;;5070904;28;20059;-42
2022/09/12 13:06:59;;;;;;;0.10;0.10;;;;;;;;;;5071171;28;20040;-42
2022/09/12 13:09:32;;;;;;;0.20;0.20;;;;;;;;;;5070027;28;20028;-44
2022/09/12 13:12:10;;;;;;;0.15;0.15;;;;;;;;;;5069609;28;20048;-43
2022/09/12 13:14:36;;;;;;;0.15;0.10;;;;;;;;;;5071196;28;20489;-42
2022/09/12 13:17:04;;;;;;;0.17;0.17;;;;;;;;;;5070928;28;20032;-42
2022/09/12 13:19:35;;;;;;;0.22;0.22;;;;;;;;;;5070759;28;20035;-43
2022/09/12 13:22:02;;;;;;;1.05;0.17;;;;;;;;;;5072840;28;20044;-43
2022/09/12 13:24:28;;;;;;;0.50;0.30;;;;;;;;;;5074619;28;20035;-42
2022/09/12 13:26:53;;;;;;;0.10;0.10;;;;;;;;;;5074556;28;20033;-43
2022/09/12 13:29:21;;;;;;;0.20;0.20;;;;;;;;;;5074625;28;20019;-42
2022/09/12 13:31:57;;;;;;;2.05;0.35;;;;;;;;;;5074611;28;20115;-43
2022/09/12 13:34:28;;;;;;;0.52;0.20;;;;;;;;;;5073197;28;20368;-43
2022/09/12 13:36:56;;;;;;;0.10;0.10;;;;;;;;;;5074325;28;20090;-42
2022/09/12 13:39:51;;;;;;;0.40;0.40;;;;;;;;;;5074539;28;20416;-42
2022/09/12 13:42:17;;;;;;;0.20;0.20;;;;;;;;;;5073292;28;20696;-42
2022/09/12 13:44:54;;;;;;;0.20;0.20;;;;;;;;;;5074449;28;20020;-42
2022/09/12 13:47:36;;;;;;;0.13;0.13;;;;;;;;;;5074312;28;20521;-42
2022/09/12 13:50:02;;;;;;;0.50;0.25;;;;;;;;;;5073973;28;20025;-43
2022/09/12 13:52:30;;;;;;;0.47;0.47;;;;;;;;;;5074363;28;20474;-42
2022/09/12 13:54:57;;;;;;;0.60;0.20;;;;;;;;;;5074253;28;20020;-42
2022/09/12 13:57:36;;;;;;;0.40;0.20;;;;;;;;;;5072846;28;20025;-43
2022/09/12 14:00:07;;;;;;;0.57;0.20;;;;;;;;;;5074138;28;20589;-42
2022/09/12 14:02:34;;;;;;;0.20;0.20;;;;;;;;;;5074047;28;20028;-43
2022/09/12 14:05:10;;;;;;;0.40;0.30;;;;;;;;;;5074069;28;20024;-43
2022/09/12 14:07:54;;;;;;;0.10;0.10;;;;;;;;;;5074011;28;20032;-43
2022/09/12 14:10:22;;;;;;;0.20;0.20;;;;;;;;;;5073756;28;20554;-42
2022/09/12 14:12:49;;;;;;;0.20;0.20;;;;;;;;;;5073634;28;20078;-42
2022/09/12 14:15:22;;;;;;;0.20;0.20;;;;;;;;;;5073952;28;20025;-42
2022/09/12 14:17:51;;;;;;;;;;;;;;;;;;5074071;28;20514;-42
2022/09/12 14:20:17;;;;;;;0.30;0.30;;;;;;;;;;5073555;28;19923;-42
2022/09/12 14:22:43;;;;;;;0.60;0.40;;;;;;;;;;5073635;28;20020;-42
2022/09/12 14:25:16;;;;;;;0.73;0.38;;;;;;;;;;5073817;28;20421;-43
2022/09/12 14:27:48;;;;;;;0.30;0.17;;;;;;;;;;5073451;28;20021;-42
2022/09/12 14:30:33;;;;;;;0.20;0.20;;;;;;;;;;5073494;28;20040;-42
2022/09/12 14:33:04;;;;;;;0.40;0.40;;;;;;;;;;5072772;28;20119;-42
2022/09/12 14:35:32;;;;;;;0.10;0.10;;;;;;;;;;5072085;28;20025;-43
2022/09/12 14:38:05;;;;;;;0.55;0.20;;;;;;;;;;5073513;28;20032;-42
2022/09/12 14:40:31;;;;;;;0.47;0.47;;;;;;;;;;5073304;28;20028;-42
2022/09/12 14:42:56;;;;;;;0.38;0.20;;;;;;;;;;5073142;28;20070;-42
2022/09/12 14:45:30;;;;;;;0.25;0.25;;;;;;;;;;5073165;28;20078;-42
2022/09/12 14:47:55;;;;;;;0.20;0.20;;;;;;;;;;5072983;28;20442;-42
2022/09/12 14:50:26;;;;;;;0.28;0.28;;;;;;;;;;5073419;28;20048;-43
2022/09/12 14:53:02;;;;;;;0.28;0.28;;;;;;;;;;5072907;28;20041;-42
2022/09/12 14:55:29;;;;;;;0.50;0.22;;;;;;;;;;5072983;28;20117;-43
2022/09/12 14:58:10;;;;;;;0.17;0.10;;;;;;;;;;5073123;28;20092;-42
2022/09/12 15:00:36;;;;;;;4.80;0.50;;;;;;;;;;5073102;28;20043;-43